sensor_id;sensor_type;location;lat;lon;timestamp;P1;durP1;ratioP1;P2;durP2;ratioP2
31732;SDS011;18312;51.486;7.144;2023-06-24T00:01:35;16.67;;;8.82;;
31732;SDS011;18312;51.486;7.144;2023-06-24T00:04:03;13.52;;;8.02;;
31732;SDS011;18312;51.486;7.144;2023-06-24T00:06:30;16.08;;;8.82;;
31732;SDS011;18312;51.486;7.144;2023-06-24T00:08:58;15.80;;;8.98;;
31732;SDS011;18312;51.486;7.144;2023-06-24T00:11:27;17.42;;;8.43;;
31732;SDS011;18312;51.486;7.144;2023-06-24T00:13:54;15.00;;;8.60;;
31732;SDS011;18312;51.486;7.144;2023-06-24T00:16:21;13.98;;;8.27;;
31732;SDS011;18312;51.486;7.144;2023-06-24T00:18:52;13.68;;;8.45;;
31732;SDS011;18312;51.486;7.144;2023-06-24T00:21:19;19.35;;;10.00;;
31732;SDS011;18312;51.486;7.144;2023-06-24T00:23:47;18.50;;;8.70;;
31732;SDS011;18312;51.486;7.144;2023-06-24T00:26:16;18.30;;;9.52;;
31732;SDS011;18312;51.486;7.144;2023-06-24T00:28:43;14.75;;;8.63;;
31732;SDS011;18312;51.486;7.144;2023-06-24T00:31:10;16.35;;;9.07;;
31732;SDS011;18312;51.486;7.144;2023-06-24T00:33:37;15.85;;;9.63;;
31732;SDS011;18312;51.486;7.144;2023-06-24T00:36:04;19.55;;;9.18;;
31732;SDS011;18312;51.486;7.144;2023-06-24T00:41:09;12.57;;;8.27;;
31732;SDS011;18312;51.486;7.144;2023-06-24T00:43:38;15.15;;;9.48;;
31732;SDS011;18312;51.486;7.144;2023-06-24T00:46:05;15.70;;;8.73;;
31732;SDS011;18312;51.486;7.144;2023-06-24T00:48:31;14.35;;;8.65;;
31732;SDS011;18312;51.486;7.144;2023-06-24T00:50:58;14.30;;;8.80;;
31732;SDS011;18312;51.486;7.144;2023-06-24T00:53:25;13.60;;;8.27;;
31732;SDS011;18312;51.486;7.144;2023-06-24T00:55:52;17.00;;;9.07;;
31732;SDS011;18312;51.486;7.144;2023-06-24T00:58:22;14.90;;;9.18;;
31732;SDS011;18312;51.486;7.144;2023-06-24T01:00:51;16.60;;;8.50;;
31732;SDS011;18312;51.486;7.144;2023-06-24T01:03:22;17.38;;;9.68;;
31732;SDS011;18312;51.486;7.144;2023-06-24T01:05:50;19.60;;;9.02;;
31732;SDS011;18312;51.486;7.144;2023-06-24T01:08:18;15.95;;;9.07;;
31732;SDS011;18312;51.486;7.144;2023-06-24T01:10:47;15.77;;;8.00;;
31732;SDS011;18312;51.486;7.144;2023-06-24T01:13:15;12.75;;;8.10;;
31732;SDS011;18312;51.486;7.144;2023-06-24T01:15:42;14.25;;;8.50;;
31732;SDS011;18312;51.486;7.144;2023-06-24T01:18:13;19.17;;;9.77;;
31732;SDS011;18312;51.486;7.144;2023-06-24T01:20:48;16.55;;;9.52;;
31732;SDS011;18312;51.486;7.144;2023-06-24T01:26:21;17.88;;;9.80;;
31732;SDS011;18312;51.486;7.144;2023-06-24T01:29:20;19.10;;;9.43;;
31732;SDS011;18312;51.486;7.144;2023-06-24T01:32:02;18.25;;;9.20;;
31732;SDS011;18312;51.486;7.144;2023-06-24T01:34:34;15.85;;;9.20;;
31732;SDS011;18312;51.486;7.144;2023-06-24T01:37:07;17.00;;;9.18;;
31732;SDS011;18312;51.486;7.144;2023-06-24T01:39:38;18.08;;;8.88;;
31732;SDS011;18312;51.486;7.144;2023-06-24T01:42:24;17.42;;;8.70;;
31732;SDS011;18312;51.486;7.144;2023-06-24T01:44:54;14.57;;;8.52;;
31732;SDS011;18312;51.486;7.144;2023-06-24T01:47:25;14.38;;;8.30;;
31732;SDS011;18312;51.486;7.144;2023-06-24T01:49:54;18.50;;;8.10;;
31732;SDS011;18312;51.486;7.144;2023-06-24T01:52:23;14.35;;;8.38;;
31732;SDS011;18312;51.486;7.144;2023-06-24T01:57:26;15.07;;;8.18;;
31732;SDS011;18312;51.486;7.144;2023-06-24T02:02:23;12.55;;;8.18;;
31732;SDS011;18312;51.486;7.144;2023-06-24T02:04:54;16.80;;;8.25;;
31732;SDS011;18312;51.486;7.144;2023-06-24T02:07:21;17.95;;;8.90;;
31732;SDS011;18312;51.486;7.144;2023-06-24T02:09:49;13.90;;;8.07;;
31732;SDS011;18312;51.486;7.144;2023-06-24T02:12:18;13.75;;;7.68;;
31732;SDS011;18312;51.486;7.144;2023-06-24T02:14:46;14.02;;;8.60;;
31732;SDS011;18312;51.486;7.144;2023-06-24T02:17:14;15.18;;;7.70;;
31732;SDS011;18312;51.486;7.144;2023-06-24T02:19:43;17.00;;;8.32;;
31732;SDS011;18312;51.486;7.144;2023-06-24T02:22:10;13.10;;;8.48;;
31732;SDS011;18312;51.486;7.144;2023-06-24T02:24:37;12.07;;;7.80;;
31732;SDS011;18312;51.486;7.144;2023-06-24T02:27:06;18.27;;;8.15;;
31732;SDS011;18312;51.486;7.144;2023-06-24T02:29:34;13.07;;;7.72;;
31732;SDS011;18312;51.486;7.144;2023-06-24T02:32:03;12.50;;;8.13;;
31732;SDS011;18312;51.486;7.144;2023-06-24T02:34:30;17.58;;;8.95;;
31732;SDS011;18312;51.486;7.144;2023-06-24T02:36:59;16.73;;;8.23;;
31732;SDS011;18312;51.486;7.144;2023-06-24T02:39:26;13.90;;;7.95;;
31732;SDS011;18312;51.486;7.144;2023-06-24T02:41:52;14.20;;;8.85;;
31732;SDS011;18312;51.486;7.144;2023-06-24T02:44:19;17.40;;;8.73;;
31732;SDS011;18312;51.486;7.144;2023-06-24T02:46:46;17.73;;;8.98;;
31732;SDS011;18312;51.486;7.144;2023-06-24T02:49:17;16.40;;;8.90;;
31732;SDS011;18312;51.486;7.144;2023-06-24T02:51:45;13.20;;;8.40;;
31732;SDS011;18312;51.486;7.144;2023-06-24T02:54:13;12.80;;;7.97;;
31732;SDS011;18312;51.486;7.144;2023-06-24T02:56:41;18.20;;;8.60;;
31732;SDS011;18312;51.486;7.144;2023-06-24T02:59:09;17.63;;;8.98;;
31732;SDS011;18312;51.486;7.144;2023-06-24T03:01:36;12.77;;;7.80;;
31732;SDS011;18312;51.486;7.144;2023-06-24T03:04:04;17.52;;;9.55;;
31732;SDS011;18312;51.486;7.144;2023-06-24T03:06:31;12.45;;;8.52;;
31732;SDS011;18312;51.486;7.144;2023-06-24T03:09:01;15.75;;;8.63;;
31732;SDS011;18312;51.486;7.144;2023-06-24T03:11:30;14.35;;;8.32;;
31732;SDS011;18312;51.486;7.144;2023-06-24T03:13:57;14.57;;;9.10;;
31732;SDS011;18312;51.486;7.144;2023-06-24T03:16:24;11.43;;;7.45;;
31732;SDS011;18312;51.486;7.144;2023-06-24T03:18:50;13.35;;;7.90;;
31732;SDS011;18312;51.486;7.144;2023-06-24T03:21:17;18.48;;;9.45;;
31732;SDS011;18312;51.486;7.144;2023-06-24T03:23:44;18.77;;;9.30;;
31732;SDS011;18312;51.486;7.144;2023-06-24T03:26:11;15.65;;;9.07;;
31732;SDS011;18312;51.486;7.144;2023-06-24T03:28:39;18.02;;;8.93;;
31732;SDS011;18312;51.486;7.144;2023-06-24T03:31:05;14.77;;;9.32;;
31732;SDS011;18312;51.486;7.144;2023-06-24T03:33:32;17.35;;;8.80;;
31732;SDS011;18312;51.486;7.144;2023-06-24T03:35:59;15.90;;;8.85;;
31732;SDS011;18312;51.486;7.144;2023-06-24T03:38:25;17.52;;;9.02;;
31732;SDS011;18312;51.486;7.144;2023-06-24T03:40:53;17.17;;;9.38;;
31732;SDS011;18312;51.486;7.144;2023-06-24T03:43:20;21.38;;;10.18;;
31732;SDS011;18312;51.486;7.144;2023-06-24T03:45:48;16.13;;;8.80;;
31732;SDS011;18312;51.486;7.144;2023-06-24T03:48:14;18.30;;;8.95;;
31732;SDS011;18312;51.486;7.144;2023-06-24T03:50:42;14.50;;;9.10;;
31732;SDS011;18312;51.486;7.144;2023-06-24T03:53:09;18.08;;;9.55;;
31732;SDS011;18312;51.486;7.144;2023-06-24T03:55:36;17.33;;;8.48;;
31732;SDS011;18312;51.486;7.144;2023-06-24T03:58:03;17.23;;;9.15;;
31732;SDS011;18312;51.486;7.144;2023-06-24T04:00:30;16.70;;;9.00;;
31732;SDS011;18312;51.486;7.144;2023-06-24T04:02:58;17.40;;;9.15;;
31732;SDS011;18312;51.486;7.144;2023-06-24T04:05:26;16.48;;;9.70;;
31732;SDS011;18312;51.486;7.144;2023-06-24T04:07:54;18.50;;;9.38;;
31732;SDS011;18312;51.486;7.144;2023-06-24T04:10:20;17.15;;;9.20;;
31732;SDS011;18312;51.486;7.144;2023-06-24T04:12:47;15.13;;;9.55;;
31732;SDS011;18312;51.486;7.144;2023-06-24T04:15:14;15.75;;;8.27;;
31732;SDS011;18312;51.486;7.144;2023-06-24T04:17:42;16.55;;;9.45;;
31732;SDS011;18312;51.486;7.144;2023-06-24T04:20:11;18.67;;;8.25;;
31732;SDS011;18312;51.486;7.144;2023-06-24T04:22:38;13.93;;;7.68;;
31732;SDS011;18312;51.486;7.144;2023-06-24T04:25:06;14.77;;;8.55;;
31732;SDS011;18312;51.486;7.144;2023-06-24T04:27:33;14.98;;;8.43;;
31732;SDS011;18312;51.486;7.144;2023-06-24T04:30:01;12.82;;;7.47;;
31732;SDS011;18312;51.486;7.144;2023-06-24T04:32:28;14.15;;;8.68;;
31732;SDS011;18312;51.486;7.144;2023-06-24T04:34:54;16.10;;;9.00;;
31732;SDS011;18312;51.486;7.144;2023-06-24T04:37:22;14.45;;;8.43;;
31732;SDS011;18312;51.486;7.144;2023-06-24T04:39:49;18.55;;;8.68;;
31732;SDS011;18312;51.486;7.144;2023-06-24T04:42:22;18.30;;;8.65;;
31732;SDS011;18312;51.486;7.144;2023-06-24T04:44:49;14.65;;;7.93;;
31732;SDS011;18312;51.486;7.144;2023-06-24T04:47:16;18.15;;;8.20;;
31732;SDS011;18312;51.486;7.144;2023-06-24T04:49:43;13.25;;;8.23;;
31732;SDS011;18312;51.486;7.144;2023-06-24T04:52:10;14.15;;;7.63;;
31732;SDS011;18312;51.486;7.144;2023-06-24T04:54:39;16.67;;;8.80;;
31732;SDS011;18312;51.486;7.144;2023-06-24T04:57:08;13.80;;;7.60;;
31732;SDS011;18312;51.486;7.144;2023-06-24T04:59:35;10.23;;;7.20;;
31732;SDS011;18312;51.486;7.144;2023-06-24T05:02:03;15.93;;;8.40;;
31732;SDS011;18312;51.486;7.144;2023-06-24T05:04:30;11.88;;;7.90;;
31732;SDS011;18312;51.486;7.144;2023-06-24T05:06:56;13.90;;;7.82;;
31732;SDS011;18312;51.486;7.144;2023-06-24T05:09:23;14.00;;;7.85;;
31732;SDS011;18312;51.486;7.144;2023-06-24T05:11:51;10.82;;;6.90;;
31732;SDS011;18312;51.486;7.144;2023-06-24T05:14:18;12.68;;;7.00;;
31732;SDS011;18312;51.486;7.144;2023-06-24T05:16:45;17.92;;;7.65;;
31732;SDS011;18312;51.486;7.144;2023-06-24T05:19:12;10.60;;;6.50;;
31732;SDS011;18312;51.486;7.144;2023-06-24T05:21:38;14.25;;;7.05;;
31732;SDS011;18312;51.486;7.144;2023-06-24T05:24:05;12.75;;;6.15;;
31732;SDS011;18312;51.486;7.144;2023-06-24T05:26:32;10.18;;;6.75;;
31732;SDS011;18312;51.486;7.144;2023-06-24T05:29:00;7.03;;;5.20;;
31732;SDS011;18312;51.486;7.144;2023-06-24T05:31:28;6.03;;;5.38;;
31732;SDS011;18312;51.486;7.144;2023-06-24T05:33:55;10.68;;;5.88;;
31732;SDS011;18312;51.486;7.144;2023-06-24T05:36:21;8.13;;;5.43;;
31732;SDS011;18312;51.486;7.144;2023-06-24T05:38:48;5.68;;;4.35;;
31732;SDS011;18312;51.486;7.144;2023-06-24T05:41:15;7.82;;;5.13;;
31732;SDS011;18312;51.486;7.144;2023-06-24T05:43:42;8.23;;;5.38;;
31732;SDS011;18312;51.486;7.144;2023-06-24T05:46:10;6.13;;;4.88;;
31732;SDS011;18312;51.486;7.144;2023-06-24T05:48:37;5.95;;;4.72;;
31732;SDS011;18312;51.486;7.144;2023-06-24T05:51:04;9.93;;;4.82;;
31732;SDS011;18312;51.486;7.144;2023-06-24T05:53:31;6.22;;;4.38;;
31732;SDS011;18312;51.486;7.144;2023-06-24T05:55:57;7.45;;;4.85;;
31732;SDS011;18312;51.486;7.144;2023-06-24T05:58:24;7.40;;;4.97;;
31732;SDS011;18312;51.486;7.144;2023-06-24T06:00:51;8.07;;;5.38;;
31732;SDS011;18312;51.486;7.144;2023-06-24T06:03:21;5.72;;;4.97;;
31732;SDS011;18312;51.486;7.144;2023-06-24T06:05:48;6.88;;;4.80;;
31732;SDS011;18312;51.486;7.144;2023-06-24T06:08:15;8.32;;;4.63;;
31732;SDS011;18312;51.486;7.144;2023-06-24T06:10:41;8.00;;;4.88;;
31732;SDS011;18312;51.486;7.144;2023-06-24T06:13:08;7.80;;;4.85;;
31732;SDS011;18312;51.486;7.144;2023-06-24T06:15:35;8.32;;;5.20;;
31732;SDS011;18312;51.486;7.144;2023-06-24T06:18:02;11.05;;;5.20;;
31732;SDS011;18312;51.486;7.144;2023-06-24T06:20:30;7.32;;;5.15;;
31732;SDS011;18312;51.486;7.144;2023-06-24T06:22:57;6.95;;;5.05;;
31732;SDS011;18312;51.486;7.144;2023-06-24T06:25:24;8.43;;;4.20;;
31732;SDS011;18312;51.486;7.144;2023-06-24T06:27:50;6.15;;;5.28;;
31732;SDS011;18312;51.486;7.144;2023-06-24T06:30:17;10.45;;;5.18;;
31732;SDS011;18312;51.486;7.144;2023-06-24T06:32:44;7.35;;;5.05;;
31732;SDS011;18312;51.486;7.144;2023-06-24T06:35:11;7.00;;;5.00;;
31732;SDS011;18312;51.486;7.144;2023-06-24T06:37:39;8.48;;;5.40;;
31732;SDS011;18312;51.486;7.144;2023-06-24T06:40:06;8.70;;;5.78;;
31732;SDS011;18312;51.486;7.144;2023-06-24T06:42:33;8.25;;;5.85;;
31732;SDS011;18312;51.486;7.144;2023-06-24T06:45:00;11.05;;;6.05;;
31732;SDS011;18312;51.486;7.144;2023-06-24T06:47:27;11.07;;;5.72;;
31732;SDS011;18312;51.486;7.144;2023-06-24T06:49:54;9.88;;;5.85;;
31732;SDS011;18312;51.486;7.144;2023-06-24T06:52:21;11.00;;;6.38;;
31732;SDS011;18312;51.486;7.144;2023-06-24T06:54:49;11.40;;;6.22;;
31732;SDS011;18312;51.486;7.144;2023-06-24T06:57:16;13.23;;;8.23;;
31732;SDS011;18312;51.486;7.144;2023-06-24T06:59:42;9.15;;;6.88;;
31732;SDS011;18312;51.486;7.144;2023-06-24T07:02:09;9.82;;;7.00;;
31732;SDS011;18312;51.486;7.144;2023-06-24T07:04:36;14.35;;;7.68;;
31732;SDS011;18312;51.486;7.144;2023-06-24T07:07:03;11.98;;;8.00;;
31732;SDS011;18312;51.486;7.144;2023-06-24T07:09:30;13.35;;;8.95;;
31732;SDS011;18312;51.486;7.144;2023-06-24T07:11:58;12.20;;;7.70;;
31732;SDS011;18312;51.486;7.144;2023-06-24T07:14:26;14.13;;;7.72;;
31732;SDS011;18312;51.486;7.144;2023-06-24T07:16:53;10.75;;;7.18;;
31732;SDS011;18312;51.486;7.144;2023-06-24T07:19:20;9.57;;;7.75;;
31732;SDS011;18312;51.486;7.144;2023-06-24T07:21:46;13.68;;;7.28;;
31732;SDS011;18312;51.486;7.144;2023-06-24T07:24:13;9.00;;;6.72;;
31732;SDS011;18312;51.486;7.144;2023-06-24T07:26:40;11.88;;;8.45;;
31732;SDS011;18312;51.486;7.144;2023-06-24T07:29:08;12.90;;;7.20;;
31732;SDS011;18312;51.486;7.144;2023-06-24T07:31:35;14.10;;;8.40;;
31732;SDS011;18312;51.486;7.144;2023-06-24T07:34:02;11.40;;;7.60;;
31732;SDS011;18312;51.486;7.144;2023-06-24T07:36:29;16.63;;;8.13;;
31732;SDS011;18312;51.486;7.144;2023-06-24T07:38:56;10.77;;;7.78;;
31732;SDS011;18312;51.486;7.144;2023-06-24T07:41:22;12.27;;;7.45;;
31732;SDS011;18312;51.486;7.144;2023-06-24T07:43:49;12.70;;;7.80;;
31732;SDS011;18312;51.486;7.144;2023-06-24T07:46:17;15.52;;;8.50;;
31732;SDS011;18312;51.486;7.144;2023-06-24T07:48:44;16.92;;;8.82;;
31732;SDS011;18312;51.486;7.144;2023-06-24T07:51:11;16.20;;;9.88;;
31732;SDS011;18312;51.486;7.144;2023-06-24T07:53:38;14.57;;;8.85;;
31732;SDS011;18312;51.486;7.144;2023-06-24T07:56:04;11.95;;;8.27;;
31732;SDS011;18312;51.486;7.144;2023-06-24T07:58:31;13.93;;;8.77;;
31732;SDS011;18312;51.486;7.144;2023-06-24T08:00:58;14.93;;;9.57;;
31732;SDS011;18312;51.486;7.144;2023-06-24T08:03:27;16.92;;;9.65;;
31732;SDS011;18312;51.486;7.144;2023-06-24T08:05:54;15.50;;;9.50;;
31732;SDS011;18312;51.486;7.144;2023-06-24T08:08:21;12.90;;;8.57;;
31732;SDS011;18312;51.486;7.144;2023-06-24T08:10:48;13.13;;;9.18;;
31732;SDS011;18312;51.486;7.144;2023-06-24T08:13:15;12.50;;;9.10;;
31732;SDS011;18312;51.486;7.144;2023-06-24T08:15:41;15.20;;;8.85;;
31732;SDS011;18312;51.486;7.144;2023-06-24T08:18:08;15.55;;;9.93;;
31732;SDS011;18312;51.486;7.144;2023-06-24T08:20:37;16.27;;;9.98;;
31732;SDS011;18312;51.486;7.144;2023-06-24T08:23:04;14.20;;;10.18;;
31732;SDS011;18312;51.486;7.144;2023-06-24T08:25:31;14.55;;;10.07;;
31732;SDS011;18312;51.486;7.144;2023-06-24T08:27:58;17.13;;;11.10;;
31732;SDS011;18312;51.486;7.144;2023-06-24T08:30:25;17.55;;;11.27;;
31732;SDS011;18312;51.486;7.144;2023-06-24T08:32:52;21.83;;;11.85;;
31732;SDS011;18312;51.486;7.144;2023-06-24T08:35:19;17.48;;;11.15;;
31732;SDS011;18312;51.486;7.144;2023-06-24T08:37:47;21.88;;;11.63;;
31732;SDS011;18312;51.486;7.144;2023-06-24T08:40:14;20.05;;;10.40;;
31732;SDS011;18312;51.486;7.144;2023-06-24T08:42:40;15.00;;;9.73;;
31732;SDS011;18312;51.486;7.144;2023-06-24T08:45:09;15.57;;;8.88;;
31732;SDS011;18312;51.486;7.144;2023-06-24T08:47:36;11.30;;;8.20;;
31732;SDS011;18312;51.486;7.144;2023-06-24T08:50:03;14.38;;;8.75;;
31732;SDS011;18312;51.486;7.144;2023-06-24T08:52:35;14.90;;;8.15;;
31732;SDS011;18312;51.486;7.144;2023-06-24T08:55:04;15.30;;;7.40;;
31732;SDS011;18312;51.486;7.144;2023-06-24T08:57:36;13.68;;;7.28;;
31732;SDS011;18312;51.486;7.144;2023-06-24T09:00:03;11.10;;;7.18;;
31732;SDS011;18312;51.486;7.144;2023-06-24T09:02:33;14.32;;;8.13;;
31732;SDS011;18312;51.486;7.144;2023-06-24T09:05:04;11.85;;;7.75;;
31732;SDS011;18312;51.486;7.144;2023-06-24T09:07:31;9.68;;;6.15;;
31732;SDS011;18312;51.486;7.144;2023-06-24T09:09:58;9.68;;;6.22;;
31732;SDS011;18312;51.486;7.144;2023-06-24T09:12:27;13.30;;;6.00;;
31732;SDS011;18312;51.486;7.144;2023-06-24T09:14:54;10.55;;;6.60;;
31732;SDS011;18312;51.486;7.144;2023-06-24T09:17:20;10.00;;;6.20;;
31732;SDS011;18312;51.486;7.144;2023-06-24T09:19:48;10.70;;;6.10;;
31732;SDS011;18312;51.486;7.144;2023-06-24T09:22:15;9.38;;;4.93;;
31732;SDS011;18312;51.486;7.144;2023-06-24T09:24:43;8.85;;;5.43;;
31732;SDS011;18312;51.486;7.144;2023-06-24T09:27:11;10.55;;;5.13;;
31732;SDS011;18312;51.486;7.144;2023-06-24T09:29:41;9.38;;;5.72;;
31732;SDS011;18312;51.486;7.144;2023-06-24T09:32:09;7.13;;;4.88;;
31732;SDS011;18312;51.486;7.144;2023-06-24T09:34:36;9.68;;;4.82;;
31732;SDS011;18312;51.486;7.144;2023-06-24T09:37:03;6.72;;;4.55;;
31732;SDS011;18312;51.486;7.144;2023-06-24T09:39:34;10.38;;;4.50;;
31732;SDS011;18312;51.486;7.144;2023-06-24T09:42:02;8.65;;;5.13;;
31732;SDS011;18312;51.486;7.144;2023-06-24T09:44:31;9.15;;;5.18;;
31732;SDS011;18312;51.486;7.144;2023-06-24T09:46:59;9.80;;;4.32;;
31732;SDS011;18312;51.486;7.144;2023-06-24T09:49:28;6.57;;;3.67;;
31732;SDS011;18312;51.486;7.144;2023-06-24T09:51:55;7.25;;;3.75;;
31732;SDS011;18312;51.486;7.144;2023-06-24T09:54:24;6.28;;;3.95;;
31732;SDS011;18312;51.486;7.144;2023-06-24T09:56:52;7.65;;;3.60;;
31732;SDS011;18312;51.486;7.144;2023-06-24T09:59:20;5.97;;;3.97;;
31732;SDS011;18312;51.486;7.144;2023-06-24T10:01:51;5.60;;;3.58;;
31732;SDS011;18312;51.486;7.144;2023-06-24T10:04:24;5.47;;;4.03;;
31732;SDS011;18312;51.486;7.144;2023-06-24T10:07:00;5.45;;;2.95;;
31732;SDS011;18312;51.486;7.144;2023-06-24T10:10:05;4.80;;;3.08;;
31732;SDS011;18312;51.486;7.144;2023-06-24T10:12:23;5.78;;;3.15;;
31732;SDS011;18312;51.486;7.144;2023-06-24T10:14:51;10.57;;;3.88;;
31732;SDS011;18312;51.486;7.144;2023-06-24T10:17:18;5.70;;;3.60;;
31732;SDS011;18312;51.486;7.144;2023-06-24T10:19:47;3.10;;;2.22;;
31732;SDS011;18312;51.486;7.144;2023-06-24T10:22:14;4.78;;;3.00;;
31732;SDS011;18312;51.486;7.144;2023-06-24T10:24:41;3.22;;;2.15;;
31732;SDS011;18312;51.486;7.144;2023-06-24T10:27:13;3.08;;;2.38;;
31732;SDS011;18312;51.486;7.144;2023-06-24T10:29:44;4.95;;;2.72;;
31732;SDS011;18312;51.486;7.144;2023-06-24T10:32:11;4.20;;;2.80;;
31732;SDS011;18312;51.486;7.144;2023-06-24T10:34:39;4.18;;;2.92;;
31732;SDS011;18312;51.486;7.144;2023-06-24T10:37:10;4.18;;;2.90;;
31732;SDS011;18312;51.486;7.144;2023-06-24T10:39:39;3.55;;;3.17;;
31732;SDS011;18312;51.486;7.144;2023-06-24T10:45:00;4.50;;;3.00;;
31732;SDS011;18312;51.486;7.144;2023-06-24T10:47:28;3.88;;;2.30;;
31732;SDS011;18312;51.486;7.144;2023-06-24T10:49:56;4.18;;;2.60;;
31732;SDS011;18312;51.486;7.144;2023-06-24T10:52:24;3.25;;;2.22;;
31732;SDS011;18312;51.486;7.144;2023-06-24T10:54:51;7.90;;;2.90;;
31732;SDS011;18312;51.486;7.144;2023-06-24T10:57:22;5.57;;;2.25;;
31732;SDS011;18312;51.486;7.144;2023-06-24T10:59:50;3.72;;;2.42;;
31732;SDS011;18312;51.486;7.144;2023-06-24T11:02:18;3.05;;;2.65;;
31732;SDS011;18312;51.486;7.144;2023-06-24T11:04:47;3.92;;;2.45;;
31732;SDS011;18312;51.486;7.144;2023-06-24T11:07:14;3.35;;;2.67;;
31732;SDS011;18312;51.486;7.144;2023-06-24T11:09:49;3.63;;;2.38;;
31732;SDS011;18312;51.486;7.144;2023-06-24T11:12:16;4.32;;;2.33;;
31732;SDS011;18312;51.486;7.144;2023-06-24T11:14:43;4.13;;;2.45;;
31732;SDS011;18312;51.486;7.144;2023-06-24T11:17:10;3.80;;;2.72;;
31732;SDS011;18312;51.486;7.144;2023-06-24T11:19:38;2.05;;;1.88;;
31732;SDS011;18312;51.486;7.144;2023-06-24T11:22:06;5.13;;;1.83;;
31732;SDS011;18312;51.486;7.144;2023-06-24T11:24:33;2.65;;;2.25;;
31732;SDS011;18312;51.486;7.144;2023-06-24T11:27:01;4.88;;;2.55;;
31732;SDS011;18312;51.486;7.144;2023-06-24T11:29:30;5.13;;;2.50;;
31732;SDS011;18312;51.486;7.144;2023-06-24T11:31:58;2.57;;;2.10;;
31732;SDS011;18312;51.486;7.144;2023-06-24T11:34:26;3.80;;;2.33;;
31732;SDS011;18312;51.486;7.144;2023-06-24T11:36:53;2.33;;;1.83;;
31732;SDS011;18312;51.486;7.144;2023-06-24T11:39:20;2.88;;;1.98;;
31732;SDS011;18312;51.486;7.144;2023-06-24T11:41:48;3.60;;;1.60;;
31732;SDS011;18312;51.486;7.144;2023-06-24T11:44:18;5.45;;;2.58;;
31732;SDS011;18312;51.486;7.144;2023-06-24T11:46:45;5.53;;;2.55;;
31732;SDS011;18312;51.486;7.144;2023-06-24T11:49:12;4.72;;;2.75;;
31732;SDS011;18312;51.486;7.144;2023-06-24T11:51:45;3.08;;;2.42;;
31732;SDS011;18312;51.486;7.144;2023-06-24T11:54:13;4.32;;;2.67;;
31732;SDS011;18312;51.486;7.144;2023-06-24T11:56:41;4.30;;;2.47;;
31732;SDS011;18312;51.486;7.144;2023-06-24T11:59:15;3.08;;;2.10;;
31732;SDS011;18312;51.486;7.144;2023-06-24T12:01:44;3.00;;;2.53;;
31732;SDS011;18312;51.486;7.144;2023-06-24T12:04:11;3.38;;;2.15;;
31732;SDS011;18312;51.486;7.144;2023-06-24T12:06:39;2.42;;;1.90;;
31732;SDS011;18312;51.486;7.144;2023-06-24T12:09:06;3.45;;;2.22;;
31732;SDS011;18312;51.486;7.144;2023-06-24T12:11:33;4.25;;;2.00;;
31732;SDS011;18312;51.486;7.144;2023-06-24T12:14:00;2.72;;;1.80;;
31732;SDS011;18312;51.486;7.144;2023-06-24T12:16:27;2.05;;;1.80;;
31732;SDS011;18312;51.486;7.144;2023-06-24T12:18:55;2.72;;;1.92;;
31732;SDS011;18312;51.486;7.144;2023-06-24T12:21:21;10.07;;;2.20;;
31732;SDS011;18312;51.486;7.144;2023-06-24T12:23:48;5.40;;;2.03;;
31732;SDS011;18312;51.486;7.144;2023-06-24T12:26:15;2.85;;;2.08;;
31732;SDS011;18312;51.486;7.144;2023-06-24T12:28:42;4.03;;;2.38;;
31732;SDS011;18312;51.486;7.144;2023-06-24T12:31:08;2.65;;;2.17;;
31732;SDS011;18312;51.486;7.144;2023-06-24T12:33:35;2.45;;;2.00;;
31732;SDS011;18312;51.486;7.144;2023-06-24T12:36:03;4.65;;;1.95;;
31732;SDS011;18312;51.486;7.144;2023-06-24T12:38:30;1.95;;;1.52;;
31732;SDS011;18312;51.486;7.144;2023-06-24T12:40:57;2.42;;;2.08;;
31732;SDS011;18312;51.486;7.144;2023-06-24T12:43:24;2.50;;;1.95;;
31732;SDS011;18312;51.486;7.144;2023-06-24T12:45:51;4.72;;;2.30;;
31732;SDS011;18312;51.486;7.144;2023-06-24T12:48:17;3.60;;;2.33;;
31732;SDS011;18312;51.486;7.144;2023-06-24T12:50:44;5.35;;;2.22;;
31732;SDS011;18312;51.486;7.144;2023-06-24T12:53:13;3.08;;;2.40;;
31732;SDS011;18312;51.486;7.144;2023-06-24T12:55:40;3.13;;;1.88;;
31732;SDS011;18312;51.486;7.144;2023-06-24T12:58:07;3.45;;;2.70;;
31732;SDS011;18312;51.486;7.144;2023-06-24T13:00:34;3.65;;;2.47;;
31732;SDS011;18312;51.486;7.144;2023-06-24T13:03:00;4.53;;;2.58;;
31732;SDS011;18312;51.486;7.144;2023-06-24T13:05:27;3.35;;;2.40;;
31732;SDS011;18312;51.486;7.144;2023-06-24T13:07:54;5.72;;;2.75;;
31732;SDS011;18312;51.486;7.144;2023-06-24T13:10:22;6.50;;;3.00;;
31732;SDS011;18312;51.486;7.144;2023-06-24T13:12:48;7.53;;;2.92;;
31732;SDS011;18312;51.486;7.144;2023-06-24T13:15:15;3.45;;;2.45;;
31732;SDS011;18312;51.486;7.144;2023-06-24T13:17:42;3.45;;;2.70;;
31732;SDS011;18312;51.486;7.144;2023-06-24T13:20:09;2.97;;;2.20;;
31732;SDS011;18312;51.486;7.144;2023-06-24T13:22:36;4.28;;;2.50;;
31732;SDS011;18312;51.486;7.144;2023-06-24T13:25:03;3.15;;;2.13;;
31732;SDS011;18312;51.486;7.144;2023-06-24T13:27:32;4.05;;;2.42;;
31732;SDS011;18312;51.486;7.144;2023-06-24T13:29:59;2.92;;;2.22;;
31732;SDS011;18312;51.486;7.144;2023-06-24T13:32:27;4.05;;;2.67;;
31732;SDS011;18312;51.486;7.144;2023-06-24T13:34:54;2.97;;;2.10;;
31732;SDS011;18312;51.486;7.144;2023-06-24T13:37:21;5.28;;;2.42;;
31732;SDS011;18312;51.486;7.144;2023-06-24T13:39:47;4.18;;;2.58;;
31732;SDS011;18312;51.486;7.144;2023-06-24T13:42:14;4.15;;;2.60;;
31732;SDS011;18312;51.486;7.144;2023-06-24T13:44:42;3.05;;;2.15;;
31732;SDS011;18312;51.486;7.144;2023-06-24T13:47:09;6.78;;;3.13;;
31732;SDS011;18312;51.486;7.144;2023-06-24T13:49:36;3.10;;;2.80;;
31732;SDS011;18312;51.486;7.144;2023-06-24T13:52:02;5.65;;;2.78;;
31732;SDS011;18312;51.486;7.144;2023-06-24T13:54:29;4.88;;;2.70;;
31732;SDS011;18312;51.486;7.144;2023-06-24T13:56:57;4.25;;;2.40;;
31732;SDS011;18312;51.486;7.144;2023-06-24T13:59:24;4.90;;;2.70;;
31732;SDS011;18312;51.486;7.144;2023-06-24T14:01:52;4.75;;;2.17;;
31732;SDS011;18312;51.486;7.144;2023-06-24T14:04:19;2.67;;;2.23;;
31732;SDS011;18312;51.486;7.144;2023-06-24T14:06:46;4.65;;;2.70;;
31732;SDS011;18312;51.486;7.144;2023-06-24T14:09:13;3.70;;;2.90;;
31732;SDS011;18312;51.486;7.144;2023-06-24T14:11:39;4.57;;;2.70;;
31732;SDS011;18312;51.486;7.144;2023-06-24T14:14:06;5.22;;;2.88;;
31732;SDS011;18312;51.486;7.144;2023-06-24T14:16:33;5.35;;;3.08;;
31732;SDS011;18312;51.486;7.144;2023-06-24T14:19:01;3.80;;;2.75;;
31732;SDS011;18312;51.486;7.144;2023-06-24T14:21:28;5.05;;;2.45;;
31732;SDS011;18312;51.486;7.144;2023-06-24T14:23:56;7.13;;;3.10;;
31732;SDS011;18312;51.486;7.144;2023-06-24T14:26:23;3.03;;;2.08;;
31732;SDS011;18312;51.486;7.144;2023-06-24T14:28:49;3.47;;;2.65;;
31732;SDS011;18312;51.486;7.144;2023-06-24T14:31:16;7.05;;;2.95;;
31732;SDS011;18312;51.486;7.144;2023-06-24T14:33:43;3.83;;;2.35;;
31732;SDS011;18312;51.486;7.144;2023-06-24T14:36:11;3.35;;;2.63;;
31732;SDS011;18312;51.486;7.144;2023-06-24T14:38:38;5.53;;;2.50;;
31732;SDS011;18312;51.486;7.144;2023-06-24T14:41:06;12.18;;;3.15;;
31732;SDS011;18312;51.486;7.144;2023-06-24T14:43:33;3.83;;;2.90;;
31732;SDS011;18312;51.486;7.144;2023-06-24T14:46:00;3.45;;;2.20;;
31732;SDS011;18312;51.486;7.144;2023-06-24T14:48:27;3.90;;;2.67;;
31732;SDS011;18312;51.486;7.144;2023-06-24T14:50:53;3.17;;;1.98;;
31732;SDS011;18312;51.486;7.144;2023-06-24T14:53:22;3.05;;;2.10;;
31732;SDS011;18312;51.486;7.144;2023-06-24T14:55:48;2.78;;;2.17;;
31732;SDS011;18312;51.486;7.144;2023-06-24T14:58:15;4.78;;;2.72;;